sensor_id;sensor_type;location;lat;lon;timestamp;pressure;altitude;pressure_sealevel;temperature;humidity
72950;BME280;64868;45.710;9.590;2023-03-01T00:00:21;99358.09;;;2.19;74.34
72950;BME280;64868;45.710;9.590;2023-03-01T00:02:51;99352.34;;;2.05;75.17
72950;BME280;64868;45.710;9.590;2023-03-01T00:05:24;99351.47;;;2.05;75.37
72950;BME280;64868;45.710;9.590;2023-03-01T00:07:59;99346.72;;;2.11;75.74
72950;BME280;64868;45.710;9.590;2023-03-01T00:10:29;99349.59;;;2.07;74.90
72950;BME280;64868;45.710;9.590;2023-03-01T00:13:02;99350.28;;;2.13;74.96
72950;BME280;64868;45.710;9.590;2023-03-01T00:15:32;99343.06;;;2.14;75.98
72950;BME280;64868;45.710;9.590;2023-03-01T00:18:00;99344.00;;;2.13;74.79
72950;BME280;64868;45.710;9.590;2023-03-01T00:20:30;99332.41;;;2.11;75.20
72950;BME280;64868;45.710;9.590;2023-03-01T00:23:02;99336.81;;;2.13;75.36
72950;BME280;64868;45.710;9.590;2023-03-01T00:25:33;99340.47;;;2.11;76.03
72950;BME280;64868;45.710;9.590;2023-03-01T00:28:05;99320.16;;;2.02;75.11
72950;BME280;64868;45.710;9.590;2023-03-01T00:30:36;99336.84;;;2.12;75.88
72950;BME280;64868;45.710;9.590;2023-03-01T00:33:08;99327.13;;;2.08;76.27
72950;BME280;64868;45.710;9.590;2023-03-01T00:35:40;99328.16;;;2.04;75.76
72950;BME280;64868;45.710;9.590;2023-03-01T00:40:48;99331.78;;;2.03;75.85
72950;BME280;64868;45.710;9.590;2023-03-01T00:43:14;99296.50;;;1.85;76.48
72950;BME280;64868;45.710;9.590;2023-03-01T00:45:39;99288.59;;;1.81;75.20
72950;BME280;64868;45.710;9.590;2023-03-01T00:48:08;99286.75;;;1.83;75.50
72950;BME280;64868;45.710;9.590;2023-03-01T00:50:33;99286.09;;;1.76;75.29
72950;BME280;64868;45.710;9.590;2023-03-01T00:52:59;99303.06;;;1.78;75.98
72950;BME280;64868;45.710;9.590;2023-03-01T00:55:25;99272.13;;;1.65;76.58
72950;BME280;64868;45.710;9.590;2023-03-01T00:57:53;99269.53;;;1.62;76.05
72950;BME280;64868;45.710;9.590;2023-03-01T01:00:19;99280.81;;;1.73;76.70
72950;BME280;64868;45.710;9.590;2023-03-01T01:02:45;99256.88;;;1.65;76.47
72950;BME280;64868;45.710;9.590;2023-03-01T01:05:16;99245.06;;;1.71;76.19
72950;BME280;64868;45.710;9.590;2023-03-01T01:07:46;99258.25;;;1.77;77.01
72950;BME280;64868;45.710;9.590;2023-03-01T01:10:12;99237.28;;;1.62;75.80
72950;BME280;64868;45.710;9.590;2023-03-01T01:12:44;99270.63;;;1.83;76.22
72950;BME280;64868;45.710;9.590;2023-03-01T01:15:10;99245.88;;;1.73;76.86
72950;BME280;64868;45.710;9.590;2023-03-01T01:17:39;99231.81;;;1.65;76.94
72950;BME280;64868;45.710;9.590;2023-03-01T01:20:05;99235.28;;;1.68;76.26
72950;BME280;64868;45.710;9.590;2023-03-01T01:22:30;99248.13;;;1.85;76.69
72950;BME280;64868;45.710;9.590;2023-03-01T01:24:56;99224.09;;;1.81;75.94
72950;BME280;64868;45.710;9.590;2023-03-01T01:27:22;99240.75;;;1.92;75.73
72950;BME280;64868;45.710;9.590;2023-03-01T01:29:53;99200.25;;;1.72;76.20
72950;BME280;64868;45.710;9.590;2023-03-01T01:32:22;99229.38;;;1.84;75.14
72950;BME280;64868;45.710;9.590;2023-03-01T01:34:47;99201.41;;;1.63;76.11
72950;BME280;64868;45.710;9.590;2023-03-01T01:37:18;99185.28;;;1.63;75.73
72950;BME280;64868;45.710;9.590;2023-03-01T01:39:43;99210.94;;;1.73;75.88
72950;BME280;64868;45.710;9.590;2023-03-01T01:42:15;99201.31;;;1.66;76.72
72950;BME280;64868;45.710;9.590;2023-03-01T01:44:42;99194.72;;;1.50;75.73
72950;BME280;64868;45.710;9.590;2023-03-01T01:47:15;99180.44;;;1.48;76.76
72950;BME280;64868;45.710;9.590;2023-03-01T01:49:54;99212.81;;;1.71;75.16
72950;BME280;64868;45.710;9.590;2023-03-01T01:52:34;99200.50;;;1.64;76.88
72950;BME280;64868;45.710;9.590;2023-03-01T01:55:14;99216.19;;;1.76;76.84
72950;BME280;64868;45.710;9.590;2023-03-01T01:57:45;99172.00;;;1.58;75.56
72950;BME280;64868;45.710;9.590;2023-03-01T02:00:13;99207.66;;;1.90;76.53
72950;BME280;64868;45.710;9.590;2023-03-01T02:02:40;99183.44;;;1.65;77.00
72950;BME280;64868;45.710;9.590;2023-03-01T02:05:12;99196.50;;;1.76;76.23
72950;BME280;64868;45.710;9.590;2023-03-01T02:07:42;99161.53;;;1.51;76.05
72950;BME280;64868;45.710;9.590;2023-03-01T02:10:08;99177.38;;;1.58;77.20
72950;BME280;64868;45.710;9.590;2023-03-01T02:12:35;99150.06;;;1.45;76.35
72950;BME280;64868;45.710;9.590;2023-03-01T02:15:02;99151.41;;;1.32;76.97
72950;BME280;64868;45.710;9.590;2023-03-01T02:17:28;99168.19;;;1.39;77.35
72950;BME280;64868;45.710;9.590;2023-03-01T02:22:27;99140.13;;;1.21;77.48
72950;BME280;64868;45.710;9.590;2023-03-01T02:25:29;99186.03;;;1.41;77.78
72950;BME280;64868;45.710;9.590;2023-03-01T02:28:08;99183.59;;;1.34;78.08
72950;BME280;64868;45.710;9.590;2023-03-01T02:30:36;99130.84;;;1.05;77.66
72950;BME280;64868;45.710;9.590;2023-03-01T02:33:03;99134.47;;;1.04;77.82
72950;BME280;64868;45.710;9.590;2023-03-01T02:35:33;99144.25;;;1.05;77.57
72950;BME280;64868;45.710;9.590;2023-03-01T02:38:01;99132.13;;;0.93;77.84
72950;BME280;64868;45.710;9.590;2023-03-01T02:40:31;99173.47;;;1.15;78.23
72950;BME280;64868;45.710;9.590;2023-03-01T02:42:58;99137.25;;;1.01;78.22
72950;BME280;64868;45.710;9.590;2023-03-01T02:45:26;99134.56;;;1.01;78.35
72950;BME280;64868;45.710;9.590;2023-03-01T02:47:56;99124.69;;;1.01;77.49
72950;BME280;64868;45.710;9.590;2023-03-01T02:50:32;99158.06;;;1.20;78.21
72950;BME280;64868;45.710;9.590;2023-03-01T02:55:53;99124.44;;;1.09;76.64
72950;BME280;64868;45.710;9.590;2023-03-01T02:58:19;99116.66;;;1.01;78.46
72950;BME280;64868;45.710;9.590;2023-03-01T03:00:47;99101.75;;;0.91;77.53
72950;BME280;64868;45.710;9.590;2023-03-01T03:03:15;99095.47;;;0.92;77.79
72950;BME280;64868;45.710;9.590;2023-03-01T03:05:42;99102.09;;;1.08;77.32
72950;BME280;64868;45.710;9.590;2023-03-01T03:08:10;99134.66;;;1.24;77.48
72950;BME280;64868;45.710;9.590;2023-03-01T03:10:39;99109.88;;;1.16;77.13
72950;BME280;64868;45.710;9.590;2023-03-01T03:13:10;99119.31;;;1.29;77.46
72950;BME280;64868;45.710;9.590;2023-03-01T03:15:38;99142.47;;;1.32;76.68
72950;BME280;64868;45.710;9.590;2023-03-01T03:18:08;99096.03;;;1.02;77.12
72950;BME280;64868;45.710;9.590;2023-03-01T03:20:36;99102.97;;;1.09;77.54
72950;BME280;64868;45.710;9.590;2023-03-01T03:23:01;99081.22;;;0.90;77.53
72950;BME280;64868;45.710;9.590;2023-03-01T03:25:32;99131.22;;;1.20;77.00
72950;BME280;64868;45.710;9.590;2023-03-01T03:27:58;99097.22;;;0.93;77.38
72950;BME280;64868;45.710;9.590;2023-03-01T03:30:31;99096.63;;;0.83;78.34
72950;BME280;64868;45.710;9.590;2023-03-01T03:32:59;99114.97;;;0.99;78.38
72950;BME280;64868;45.710;9.590;2023-03-01T03:35:29;99085.00;;;0.84;77.63
72950;BME280;64868;45.710;9.590;2023-03-01T03:37:59;99113.25;;;0.96;77.90
72950;BME280;64868;45.710;9.590;2023-03-01T03:40:39;99085.88;;;0.85;78.77
72950;BME280;64868;45.710;9.590;2023-03-01T03:43:08;99129.88;;;1.07;77.29
72950;BME280;64868;45.710;9.590;2023-03-01T03:45:37;99081.91;;;0.96;76.71
72950;BME280;64868;45.710;9.590;2023-03-01T03:48:06;99109.59;;;0.99;78.26
72950;BME280;64868;45.710;9.590;2023-03-01T03:50:32;99087.63;;;0.86;77.98
72950;BME280;64868;45.710;9.590;2023-03-01T03:53:01;99087.16;;;0.73;77.76
72950;BME280;64868;45.710;9.590;2023-03-01T03:55:27;99080.75;;;0.77;78.27
72950;BME280;64868;45.710;9.590;2023-03-01T03:58:00;99092.22;;;0.82;78.53
72950;BME280;64868;45.710;9.590;2023-03-01T04:00:32;99107.56;;;1.05;77.97
72950;BME280;64868;45.710;9.590;2023-03-01T04:02:59;99085.72;;;0.89;77.71
72950;BME280;64868;45.710;9.590;2023-03-01T04:05:27;99066.56;;;0.73;78.29
72950;BME280;64868;45.710;9.590;2023-03-01T04:07:55;99089.75;;;0.76;78.88
72950;BME280;64868;45.710;9.590;2023-03-01T04:10:34;99082.50;;;0.78;78.78
72950;BME280;64868;45.710;9.590;2023-03-01T04:13:01;99067.38;;;0.76;78.74
72950;BME280;64868;45.710;9.590;2023-03-01T04:15:27;99073.34;;;0.85;77.89
72950;BME280;64868;45.710;9.590;2023-03-01T04:17:54;99063.88;;;0.73;77.68
72950;BME280;64868;45.710;9.590;2023-03-01T04:20:26;99085.63;;;0.92;77.72
72950;BME280;64868;45.710;9.590;2023-03-01T04:22:57;99073.75;;;0.73;78.70
72950;BME280;64868;45.710;9.590;2023-03-01T04:25:25;99065.88;;;0.67;78.49
72950;BME280;64868;45.710;9.590;2023-03-01T04:27:51;99096.75;;;0.80;78.70
72950;BME280;64868;45.710;9.590;2023-03-01T04:30:16;99078.09;;;0.76;78.74
72950;BME280;64868;45.710;9.590;2023-03-01T04:32:42;99058.75;;;0.66;77.47
72950;BME280;64868;45.710;9.590;2023-03-01T04:35:11;99060.19;;;0.50;78.66
72950;BME280;64868;45.710;9.590;2023-03-01T04:37:36;99083.25;;;0.55;78.61
72950;BME280;64868;45.710;9.590;2023-03-01T04:40:07;99067.22;;;0.54;79.14
72950;BME280;64868;45.710;9.590;2023-03-01T04:42:40;99073.22;;;0.60;78.72
72950;BME280;64868;45.710;9.590;2023-03-01T04:45:08;99082.22;;;0.59;77.99
72950;BME280;64868;45.710;9.590;2023-03-01T04:47:41;99084.09;;;0.57;79.10
72950;BME280;64868;45.710;9.590;2023-03-01T04:50:09;99091.97;;;0.62;79.17
72950;BME280;64868;45.710;9.590;2023-03-01T04:52:37;99062.09;;;0.46;78.44
72950;BME280;64868;45.710;9.590;2023-03-01T04:55:06;99071.72;;;0.52;78.33
72950;BME280;64868;45.710;9.590;2023-03-01T04:57:31;99072.94;;;0.41;78.37
72950;BME280;64868;45.710;9.590;2023-03-01T05:00:01;99071.88;;;0.47;79.15
72950;BME280;64868;45.710;9.590;2023-03-01T05:02:47;99083.31;;;0.54;79.25
72950;BME280;64868;45.710;9.590;2023-03-01T05:05:14;99079.88;;;0.48;79.47
72950;BME280;64868;45.710;9.590;2023-03-01T05:07:40;99079.63;;;0.56;78.37
72950;BME280;64868;45.710;9.590;2023-03-01T05:10:06;99075.34;;;0.51;78.10
72950;BME280;64868;45.710;9.590;2023-03-01T05:12:31;99064.31;;;0.32;78.96
72950;BME280;64868;45.710;9.590;2023-03-01T05:14:57;99040.50;;;0.21;79.15
72950;BME280;64868;45.710;9.590;2023-03-01T05:17:23;99061.78;;;0.27;79.73
72950;BME280;64868;45.710;9.590;2023-03-01T05:19:49;99057.53;;;0.20;79.20
72950;BME280;64868;45.710;9.590;2023-03-01T05:22:15;99077.63;;;0.35;79.72
72950;BME280;64868;45.710;9.590;2023-03-01T05:24:41;99060.06;;;0.24;79.84
72950;BME280;64868;45.710;9.590;2023-03-01T05:27:09;99090.50;;;0.52;79.41
72950;BME280;64868;45.710;9.590;2023-03-01T05:29:37;99080.88;;;0.46;79.41
72950;BME280;64868;45.710;9.590;2023-03-01T05:32:07;99070.16;;;0.44;79.42
72950;BME280;64868;45.710;9.590;2023-03-01T05:34:35;99086.72;;;0.59;79.21
72950;BME280;64868;45.710;9.590;2023-03-01T05:37:01;99059.97;;;0.56;78.50
72950;BME280;64868;45.710;9.590;2023-03-01T05:39:28;99077.09;;;0.80;77.57
72950;BME280;64868;45.710;9.590;2023-03-01T05:41:58;99070.13;;;0.74;77.26
72950;BME280;64868;45.710;9.590;2023-03-01T05:44:27;99093.94;;;0.85;78.49
72950;BME280;64868;45.710;9.590;2023-03-01T05:46:57;99096.38;;;0.91;77.51
72950;BME280;64868;45.710;9.590;2023-03-01T05:49:30;99095.06;;;1.04;76.88
72950;BME280;64868;45.710;9.590;2023-03-01T05:52:03;99093.84;;;0.88;77.89
72950;BME280;64868;45.710;9.590;2023-03-01T05:54:36;99084.94;;;0.86;77.72
72950;BME280;64868;45.710;9.590;2023-03-01T05:57:08;99095.38;;;0.95;77.62
72950;BME280;64868;45.710;9.590;2023-03-01T05:59:38;99096.25;;;0.95;77.66
72950;BME280;64868;45.710;9.590;2023-03-01T06:02:06;99094.47;;;0.94;77.26
72950;BME280;64868;45.710;9.590;2023-03-01T06:04:39;99098.78;;;1.00;76.67
72950;BME280;64868;45.710;9.590;2023-03-01T06:07:11;99095.69;;;1.12;76.60
72950;BME280;64868;45.710;9.590;2023-03-01T06:09:42;99096.81;;;1.05;76.86
72950;BME280;64868;45.710;9.590;2023-03-01T06:12:14;99106.66;;;1.06;76.69
72950;BME280;64868;45.710;9.590;2023-03-01T06:14:47;99103.03;;;1.07;77.33
72950;BME280;64868;45.710;9.590;2023-03-01T06:17:19;99113.53;;;1.13;77.30
72950;BME280;64868;45.710;9.590;2023-03-01T06:19:52;99118.00;;;1.14;76.17
72950;BME280;64868;45.710;9.590;2023-03-01T06:22:25;99107.91;;;1.21;76.10
72950;BME280;64868;45.710;9.590;2023-03-01T06:24:53;99098.69;;;1.30;76.61
72950;BME280;64868;45.710;9.590;2023-03-01T06:27:25;99114.28;;;1.45;75.77
72950;BME280;64868;45.710;9.590;2023-03-01T06:29:58;99109.91;;;1.67;74.87
72950;BME280;64868;45.710;9.590;2023-03-01T06:32:28;99110.72;;;1.69;73.71
72950;BME280;64868;45.710;9.590;2023-03-01T06:35:00;99111.78;;;1.90;73.44
72950;BME280;64868;45.710;9.590;2023-03-01T06:37:31;99105.91;;;2.95;70.56
72950;BME280;64868;45.710;9.590;2023-03-01T06:40:02;99105.25;;;4.53;64.48
72950;BME280;64868;45.710;9.590;2023-03-01T06:42:38;99105.00;;;4.96;62.17
72950;BME280;64868;45.710;9.590;2023-03-01T06:45:09;99108.25;;;5.57;60.73
72950;BME280;64868;45.710;9.590;2023-03-01T06:47:39;99106.81;;;6.36;56.95
72950;BME280;64868;45.710;9.590;2023-03-01T06:50:17;99096.97;;;7.45;53.48
72950;BME280;64868;45.710;9.590;2023-03-01T06:52:48;99110.44;;;7.93;51.85
72950;BME280;64868;45.710;9.590;2023-03-01T06:55:25;99107.38;;;7.53;53.40
72950;BME280;64868;45.710;9.590;2023-03-01T06:57:56;99107.94;;;7.74;52.42
72950;BME280;64868;45.710;9.590;2023-03-01T07:00:27;99110.72;;;8.61;48.74
72950;BME280;64868;45.710;9.590;2023-03-01T07:03:00;99097.09;;;8.90;49.11
72950;BME280;64868;45.710;9.590;2023-03-01T07:05:30;99101.63;;;9.85;46.79
72950;BME280;64868;45.710;9.590;2023-03-01T07:08:00;99104.78;;;10.69;43.94
72950;BME280;64868;45.710;9.590;2023-03-01T07:10:39;99103.34;;;11.74;41.76
72950;BME280;64868;45.710;9.590;2023-03-01T07:13:13;99107.00;;;11.38;43.48
72950;BME280;64868;45.710;9.590;2023-03-01T07:15:46;99097.69;;;9.76;45.76
72950;BME280;64868;45.710;9.590;2023-03-01T07:18:18;99110.81;;;7.41;52.66
72950;BME280;64868;45.710;9.590;2023-03-01T07:20:46;99118.63;;;6.34;55.43
72950;BME280;64868;45.710;9.590;2023-03-01T07:23:16;99118.56;;;5.67;57.19
72950;BME280;64868;45.710;9.590;2023-03-01T07:25:51;99115.97;;;5.29;59.29
72950;BME280;64868;45.710;9.590;2023-03-01T07:28:22;99109.63;;;4.94;61.45
72950;BME280;64868;45.710;9.590;2023-03-01T07:30:50;99120.44;;;4.94;59.66
72950;BME280;64868;45.710;9.590;2023-03-01T07:33:23;99126.63;;;4.77;61.70
72950;BME280;64868;45.710;9.590;2023-03-01T07:35:57;99113.50;;;4.69;61.59
72950;BME280;64868;45.710;9.590;2023-03-01T07:38:28;99125.03;;;4.54;63.34
72950;BME280;64868;45.710;9.590;2023-03-01T07:41:02;99110.66;;;4.72;62.20
72950;BME280;64868;45.710;9.590;2023-03-01T07:43:36;99114.31;;;4.71;63.21
72950;BME280;64868;45.710;9.590;2023-03-01T07:46:04;99120.66;;;4.89;62.47
72950;BME280;64868;45.710;9.590;2023-03-01T07:48:37;99118.06;;;5.24;61.61
72950;BME280;64868;45.710;9.590;2023-03-01T07:51:09;99118.25;;;5.55;60.39
72950;BME280;64868;45.710;9.590;2023-03-01T07:53:41;99109.63;;;6.34;57.92
72950;BME280;64868;45.710;9.590;2023-03-01T07:56:15;99102.09;;;6.56;56.51
72950;BME280;64868;45.710;9.590;2023-03-01T07:58:46;99104.25;;;6.66;56.59
72950;BME280;64868;45.710;9.590;2023-03-01T08:01:19;99103.78;;;6.91;56.39
72950;BME280;64868;45.710;9.590;2023-03-01T08:03:52;99096.94;;;7.15;55.08
72950;BME280;64868;45.710;9.590;2023-03-01T08:06:20;99092.38;;;7.31;55.06
72950;BME280;64868;45.710;9.590;2023-03-01T08:08:52;99084.28;;;7.76;53.41
72950;BME280;64868;45.710;9.590;2023-03-01T08:11:23;99092.75;;;9.68;48.72
72950;BME280;64868;45.710;9.590;2023-03-01T08:13:51;99072.66;;;12.75;40.42
72950;BME280;64868;45.710;9.590;2023-03-01T08:16:24;99081.34;;;12.91;40.88
72950;BME280;64868;45.710;9.590;2023-03-01T08:18:57;99089.28;;;11.19;42.76
72950;BME280;64868;45.710;9.590;2023-03-01T08:21:30;99084.41;;;10.50;44.10
72950;BME280;64868;45.710;9.590;2023-03-01T08:24:03;99082.97;;;11.91;42.92
72950;BME280;64868;45.710;9.590;2023-03-01T08:26:36;99086.09;;;11.26;43.02
72950;BME280;64868;45.710;9.590;2023-03-01T08:29:09;99061.59;;;10.63;45.17
72950;BME280;64868;45.710;9.590;2023-03-01T08:31:42;99065.06;;;11.87;42.37
72950;BME280;64868;45.710;9.590;2023-03-01T08:34:17;99067.66;;;12.46;40.50
72950;BME280;64868;45.710;9.590;2023-03-01T08:36:47;99066.25;;;12.07;40.90
72950;BME280;64868;45.710;9.590;2023-03-01T08:39:19;99060.44;;;12.23;40.91
72950;BME280;64868;45.710;9.590;2023-03-01T08:41:51;99057.97;;;12.76;42.06
72950;BME280;64868;45.710;9.590;2023-03-01T08:44:21;99041.31;;;15.41;36.60
72950;BME280;64868;45.710;9.590;2023-03-01T08:46:51;99051.25;;;19.77;28.52
72950;BME280;64868;45.710;9.590;2023-03-01T08:49:22;99044.91;;;20.26;27.06
72950;BME280;64868;45.710;9.590;2023-03-01T08:51:52;99056.97;;;19.25;28.23
72950;BME280;64868;45.710;9.590;2023-03-01T08:54:24;99053.00;;;18.41;28.90
72950;BME280;64868;45.710;9.590;2023-03-01T08:56:55;99049.88;;;23.34;22.62
72950;BME280;64868;45.710;9.590;2023-03-01T08:59:27;99044.75;;;26.53;19.04
72950;BME280;64868;45.710;9.590;2023-03-01T09:02:00;99055.03;;;27.32;17.18
72950;BME280;64868;45.710;9.590;2023-03-01T09:04:30;99043.44;;;24.98;19.37
72950;BME280;64868;45.710;9.590;2023-03-01T09:07:03;99038.06;;;27.00;17.29
72950;BME280;64868;45.710;9.590;2023-03-01T09:09:33;99026.16;;;22.41;21.13
72950;BME280;64868;45.710;9.590;2023-03-01T09:12:03;99037.09;;;17.64;28.53
72950;BME280;64868;45.710;9.590;2023-03-01T09:14:34;99025.00;;;15.49;31.57
72950;BME280;64868;45.710;9.590;2023-03-01T09:17:10;99020.69;;;14.56;35.17
72950;BME280;64868;45.710;9.590;2023-03-01T09:20:13;99000.78;;;16.40;32.18
72950;BME280;64868;45.710;9.590;2023-03-01T09:22:48;98995.47;;;19.39;26.79
72950;BME280;64868;45.710;9.590;2023-03-01T09:25:35;98997.25;;;16.85;30.77
72950;BME280;64868;45.710;9.590;2023-03-01T09:31:00;98994.91;;;15.87;32.09
72950;BME280;64868;45.710;9.590;2023-03-01T09:33:34;98995.31;;;18.30;29.21
72950;BME280;64868;45.710;9.590;2023-03-01T09:36:09;98988.81;;;17.60;29.74
72950;BME280;64868;45.710;9.590;2023-03-01T09:38:43;98988.00;;;18.03;29.21
72950;BME280;64868;45.710;9.590;2023-03-01T09:41:26;98977.31;;;18.78;27.42
72950;BME280;64868;45.710;9.590;2023-03-01T09:46:40;98963.91;;;14.97;33.93
72950;BME280;64868;45.710;9.590;2023-03-01T09:49:21;98960.16;;;18.40;28.64
72950;BME280;64868;45.710;9.590;2023-03-01T09:52:14;98961.19;;;19.91;26.15
72950;BME280;64868;45.710;9.590;2023-03-01T09:54:49;98961.28;;;18.56;27.59
72950;BME280;64868;45.710;9.590;2023-03-01T09:57:33;98961.41;;;17.76;29.11
72950;BME280;64868;45.710;9.590;2023-03-01T10:05:39;98943.53;;;20.25;25.65
72950;BME280;64868;45.710;9.590;2023-03-01T10:11:03;98938.84;;;27.54;16.69
72950;BME280;64868;45.710;9.590;2023-03-01T10:13:45;98934.91;;;29.37;14.33
72950;BME280;64868;45.710;9.590;2023-03-01T10:16:45;98938.69;;;26.25;17.48
72950;BME280;64868;45.710;9.590;2023-03-01T10:19:24;98909.84;;;22.38;21.54
72950;BME280;64868;45.710;9.590;2023-03-01T10:21:59;98898.44;;;24.63;20.70
72950;BME280;64868;45.710;9.590;2023-03-01T10:24:36;98885.91;;;23.53;20.57
72950;BME280;64868;45.710;9.590;2023-03-01T10:27:07;98884.41;;;19.77;24.91
72950;BME280;64868;45.710;9.590;2023-03-01T10:29:46;98881.66;;;19.68;26.47
72950;BME280;64868;45.710;9.590;2023-03-01T10:32:18;98886.50;;;19.75;26.47
72950;BME280;64868;45.710;9.590;2023-03-01T10:34:51;98878.94;;;20.40;24.67
72950;BME280;64868;45.710;9.590;2023-03-01T10:37:22;98879.47;;;22.80;22.41
72950;BME280;64868;45.710;9.590;2023-03-01T10:40:12;98894.00;;;26.11;18.93
72950;BME280;64868;45.710;9.590;2023-03-01T10:42:47;98881.25;;;24.32;19.82
72950;BME280;64868;45.710;9.590;2023-03-01T10:45:38;98859.13;;;20.60;24.51
72950;BME280;64868;45.710;9.590;2023-03-01T10:48:14;98864.34;;;17.98;28.27
72950;BME280;64868;45.710;9.590;2023-03-01T10:50:45;98857.66;;;16.13;31.55
72950;BME280;64868;45.710;9.590;2023-03-01T10:53:48;98858.28;;;19.22;27.53
72950;BME280;64868;45.710;9.590;2023-03-01T10:56:22;98855.03;;;21.64;25.13
72950;BME280;64868;45.710;9.590;2023-03-01T10:59:08;98846.19;;;20.44;25.93
72950;BME280;64868;45.710;9.590;2023-03-01T11:02:22;98840.63;;;20.60;25.91
72950;BME280;64868;45.710;9.590;2023-03-01T11:05:16;98832.56;;;21.05;25.33
72950;BME280;64868;45.710;9.590;2023-03-01T11:08:00;98822.34;;;18.47;27.21
72950;BME280;64868;45.710;9.590;2023-03-01T11:10:37;98832.69;;;16.79;30.64
72950;BME280;64868;45.710;9.590;2023-03-01T11:13:18;98826.22;;;17.94;28.83
72950;BME280;64868;45.710;9.590;2023-03-01T11:16:03;98812.31;;;16.44;31.36
72950;BME280;64868;45.710;9.590;2023-03-01T11:18:36;98795.31;;;15.56;33.93
72950;BME280;64868;45.710;9.590;2023-03-01T11:21:08;98795.22;;;16.23;32.91
72950;BME280;64868;45.710;9.590;2023-03-01T11:23:39;98778.19;;;16.10;32.42
72950;BME280;64868;45.710;9.590;2023-03-01T11:26:12;98767.47;;;15.79;33.46
72950;BME280;64868;45.710;9.590;2023-03-01T11:28:46;98770.56;;;14.90;32.82
72950;BME280;64868;45.710;9.590;2023-03-01T11:31:18;98756.63;;;14.24;34.31
72950;BME280;64868;45.710;9.590;2023-03-01T11:33:57;98760.41;;;13.42;35.04
72950;BME280;64868;45.710;9.590;2023-03-01T11:39:22;98766.88;;;12.46;36.55
72950;BME280;64868;45.710;9.590;2023-03-01T11:44:51;98780.34;;;12.70;36.44
72950;BME280;64868;45.710;9.590;2023-03-01T11:47:41;98778.84;;;12.98;35.07
72950;BME280;64868;45.710;9.590;2023-03-01T11:50:30;98763.69;;;12.73;36.84
72950;BME280;64868;45.710;9.590;2023-03-01T11:59:13;98758.31;;;12.07;37.25
72950;BME280;64868;45.710;9.590;2023-03-01T12:05:09;98762.41;;;12.45;35.72
72950;BME280;64868;45.710;9.590;2023-03-01T12:07:51;98754.41;;;13.06;36.49
72950;BME280;64868;45.710;9.590;2023-03-01T12:19:32;98739.66;;;12.24;36.84
72950;BME280;64868;45.710;9.590;2023-03-01T12:30:58;98723.13;;;11.71;39.94
72950;BME280;64868;45.710;9.590;2023-03-01T12:34:09;98732.81;;;11.30;40.44
72950;BME280;64868;45.710;9.590;2023-03-01T12:50:53;98727.41;;;10.72;42.14
72950;BME280;64868;45.710;9.590;2023-03-01T12:53:27;98728.66;;;10.44;43.72
72950;BME280;64868;45.710;9.590;2023-03-01T12:56:03;98740.19;;;10.47;42.53
72950;BME280;64868;45.710;9.590;2023-03-01T12:58:40;98749.31;;;10.35;43.82
72950;BME280;64868;45.710;9.590;2023-03-01T13:06:40;98753.66;;;11.31;43.05
72950;BME280;64868;45.710;9.590;2023-03-01T13:09:41;98762.56;;;11.10;42.84
72950;BME280;64868;45.710;9.590;2023-03-01T13:12:51;98760.28;;;10.46;43.73
72950;BME280;64868;45.710;9.590;2023-03-01T13:15:27;98769.31;;;10.82;44.49
72950;BME280;64868;45.710;9.590;2023-03-01T13:20:50;98766.28;;;10.63;44.11
72950;BME280;64868;45.710;9.590;2023-03-01T13:23:28;98777.03;;;10.29;45.32
72950;BME280;64868;45.710;9.590;2023-03-01T13:26:02;98789.81;;;10.16;44.77
72950;BME280;64868;45.710;9.590;2023-03-01T13:28:42;98788.34;;;10.36;45.07
72950;BME280;64868;45.710;9.590;2023-03-01T13:33:53;98788.16;;;9.89;45.53
72950;BME280;64868;45.710;9.590;2023-03-01T13:39:05;98792.81;;;10.00;46.27
72950;BME280;64868;45.710;9.590;2023-03-01T13:41:54;98799.66;;;10.06;45.71
72950;BME280;64868;45.710;9.590;2023-03-01T13:44:35;98797.88;;;10.17;45.17
72950;BME280;64868;45.710;9.590;2023-03-01T13:49:55;98800.06;;;9.75;45.87
72950;BME280;64868;45.710;9.590;2023-03-01T13:52:45;98810.25;;;9.48;46.03
72950;BME280;64868;45.710;9.590;2023-03-01T13:58:11;98816.44;;;9.37;47.08
72950;BME280;64868;45.710;9.590;2023-03-01T14:00:47;98798.69;;;9.32;47.40
72950;BME280;64868;45.710;9.590;2023-03-01T14:03:18;98809.31;;;9.73;44.77
72950;BME280;64868;45.710;9.590;2023-03-01T14:08:33;98795.66;;;9.49;46.22
72950;BME280;64868;45.710;9.590;2023-03-01T14:11:20;98799.47;;;9.34;46.93
72950;BME280;64868;45.710;9.590;2023-03-01T14:14:23;98798.81;;;9.43;46.62
72950;BME280;64868;45.710;9.590;2023-03-01T14:19:35;98796.75;;;9.34;47.68
72950;BME280;64868;45.710;9.590;2023-03-01T14:22:31;98799.34;;;9.35;47.33
72950;BME280;64868;45.710;9.590;2023-03-01T14:25:02;98788.06;;;9.29;47.19
72950;BME280;64868;45.710;9.590;2023-03-01T14:27:38;98797.84;;;9.18;47.51
72950;BME280;64868;45.710;9.590;2023-03-01T14:32:54;98781.09;;;8.99;48.70
72950;BME280;64868;45.710;9.590;2023-03-01T14:35:33;98779.47;;;9.09;48.19
72950;BME280;64868;45.710;9.590;2023-03-01T14:38:13;98795.56;;;8.87;47.97
72950;BME280;64868;45.710;9.590;2023-03-01T14:40:50;98802.53;;;8.91;48.83
72950;BME280;64868;45.710;9.590;2023-03-01T14:43:23;98785.53;;;9.00;48.33
72950;BME280;64868;45.710;9.590;2023-03-01T14:45:55;98783.91;;;9.23;48.26
72950;BME280;64868;45.710;9.590;2023-03-01T14:48:26;98794.03;;;9.34;47.65
72950;BME280;64868;45.710;9.590;2023-03-01T14:50:59;98792.09;;;9.10;48.17
72950;BME280;64868;45.710;9.590;2023-03-01T14:53:31;98799.13;;;9.13;48.08
72950;BME280;64868;45.710;9.590;2023-03-01T14:56:04;98796.88;;;9.07;48.27
72950;BME280;64868;45.710;9.590;2023-03-01T14:58:33;98794.25;;;8.92;48.75
72950;BME280;64868;45.710;9.590;2023-03-01T15:01:05;98788.59;;;8.95;48.95
72950;BME280;64868;45.710;9.590;2023-03-01T15:03:40;98796.63;;;8.97;48.26
72950;BME280;64868;45.710;9.590;2023-03-01T15:06:16;98801.19;;;8.96;48.77
72950;BME280;64868;45.710;9.590;2023-03-01T15:08:47;98790.22;;;8.85;48.70
72950;BME280;64868;45.710;9.590;2023-03-01T15:11:23;98790.94;;;8.74;49.42
72950;BME280;64868;45.710;9.590;2023-03-01T15:13:52;98795.75;;;8.84;49.16